1997 ISA (1997099N06153)


On this page: IBTrACS data - Map and Plots - Positions - Intensities - Original source data

Summary

Start Apr 9
End Apr 24
Basin WP
LMI 145 kt
Sources jtwc_wp
tokyo
cma
hko
In WMO? Yes
Previous storm 1997 HINA (SP)
Previous in basin 1997 HANNAH (WP)
Concurrent storms 1997 ISA (WP)
1997 IAN (SP)
1997 JIMMY (WP)
Next in basin 1997 JIMMY (WP)
Next storm 1997 IAN (SP)

top of page IBTrACS Data: File Access

top of page HURSAT Data: File Access

Image of storm

top of page Plots:

Map of storm track will not appear if FTP is down
Time series of cyclone Maximum Sustained Wind will not appear if FTP is down
Time series of cyclone Minimum Central Pressure will not appear if FTP is down

top of page Track Data:Position

jtwc_wp tokyo cma hko
Date Lat Lon Lat Lon Lat Lon Lat Lon
1997-04-09 00:00:00 6.2 153.0
1997-04-09 06:00:00 6.6 154.4
1997-04-09 12:00:00 7.2 155.7
1997-04-09 18:00:00 8.4 156.4
1997-04-10 00:00:00 9.7 156.9
1997-04-10 06:00:00 10.0 157.4
1997-04-10 12:00:00 9.8 157.7
1997-04-10 18:00:00 9.6 157.9
1997-04-11 00:00:00 9.2 158.1
1997-04-11 06:00:00 8.7 158.2
1997-04-11 12:00:00 8.2 158.2
1997-04-11 18:00:00 7.7 158.1
1997-04-12 00:00:00 7.2 158.0 7.5 158.5 7.5 158.5 7.5 158.8
1997-04-12 06:00:00 7.0 158.4 7.8 158.6 7.4 158.1 7.8 158.7
1997-04-12 12:00:00 7.3 158.6 8.1 158.8 7.4 157.7 8.1 158.5
1997-04-12 18:00:00 7.8 158.5 8.5 159.1 7.6 157.3 8.4 158.3
1997-04-13 00:00:00 8.2 158.2 8.9 158.8 8.0 157.0 8.7 158.1
1997-04-13 06:00:00 8.7 157.7 9.0 157.9 8.5 157.0 8.9 157.8
1997-04-13 12:00:00 9.1 157.1 9.1 157.2 8.9 156.9 9.3 157.2
1997-04-13 18:00:00 9.6 156.2 9.3 156.2 9.3 156.5 9.6 156.4
1997-04-14 00:00:00 10.0 155.3 9.8 155.2 9.8 155.4 9.9 155.4
1997-04-14 06:00:00 10.1 154.3 10.1 154.3 10.2 154.3 10.0 154.3
1997-04-14 12:00:00 10.1 153.1 10.2 153.2 10.2 153.2 10.1 153.1
1997-04-14 18:00:00 10.1 151.8 10.1 152.1 10.1 152.1 10.2 151.8
1997-04-15 00:00:00 10.1 150.5 10.1 150.8 10.1 150.6 10.2 150.5
jtwc_wp tokyo cma hko
1997-04-15 06:00:00 10.1 149.2 10.1 149.3 10.1 149.2 10.2 149.3
1997-04-15 12:00:00 10.1 148.2 10.2 148.3 10.2 148.2 10.2 148.4
1997-04-15 18:00:00 10.2 147.2 10.3 147.3 10.2 147.3 10.2 147.5
1997-04-16 00:00:00 10.3 146.5 10.3 146.8 10.3 146.7 10.2 146.7
1997-04-16 06:00:00 10.8 145.7 10.6 145.9 10.6 145.9 10.4 145.9
1997-04-16 12:00:00 11.0 144.8 10.8 145.1 10.8 145.1 10.7 145.1
1997-04-16 18:00:00 11.2 143.9 11.2 144.3 11.2 144.3 11.0 144.3
1997-04-17 00:00:00 11.5 143.3 11.5 143.6 11.5 143.5 11.4 143.5
1997-04-17 06:00:00 11.9 142.7 12.0 142.8 11.9 142.8 11.9 142.7
1997-04-17 12:00:00 12.4 142.0 12.5 142.0 12.4 142.0 12.3 141.9
1997-04-17 18:00:00 12.8 141.3 12.8 141.2 12.8 141.2 12.7 141.2
1997-04-18 00:00:00 13.1 140.5 13.0 140.5 13.1 140.5 13.0 140.5
1997-04-18 06:00:00 13.2 139.8 13.2 139.8 13.3 139.8 13.3 139.8
1997-04-18 12:00:00 13.4 139.3 13.6 139.3 13.5 139.3 13.5 139.3
1997-04-18 18:00:00 13.8 138.8 13.9 138.9 13.8 138.9 13.8 138.8
1997-04-19 00:00:00 14.3 138.4 14.2 138.5 14.2 138.5 14.2 138.4
1997-04-19 06:00:00 14.8 138.1 14.8 138.2 14.9 138.1 14.7 138.1
1997-04-19 12:00:00 15.4 137.9 15.4 138.0 15.3 137.9 15.3 137.9
1997-04-19 18:00:00 16.0 137.8 15.9 137.8 16.0 137.7 15.9 137.7
1997-04-20 00:00:00 16.6 137.7 16.6 137.7 16.6 137.6 16.5 137.6
1997-04-20 06:00:00 17.3 137.6 17.4 137.6 17.4 137.6 17.3 137.5
1997-04-20 12:00:00 18.1 137.6 18.2 137.6 18.2 137.5 18.2 137.5
1997-04-20 18:00:00 19.0 137.6 19.2 137.6 19.2 137.5 19.1 137.6
1997-04-21 00:00:00 20.0 137.6 20.0 137.7 20.0 137.6 20.0 137.7
jtwc_wp tokyo cma hko
1997-04-21 06:00:00 21.0 138.0 20.9 138.0 20.9 138.0 20.9 138.0
1997-04-21 12:00:00 22.0 138.7 22.1 138.3 22.1 138.7 22.1 138.5
1997-04-21 18:00:00 23.1 139.1 23.3 138.9 23.3 139.0 23.3 139.2
1997-04-22 00:00:00 24.5 139.9 24.6 139.8 24.5 139.7 24.6 140.1
1997-04-22 06:00:00 25.7 141.1 25.8 141.1 25.7 141.1 25.8 141.2
1997-04-22 12:00:00 26.8 142.5 27.0 142.7 27.0 142.7 26.9 142.7
1997-04-22 18:00:00 27.5 144.1 27.7 144.1 27.7 144.0 27.5 144.4
1997-04-23 00:00:00 28.2 145.8 28.1 145.8 27.9 145.7 28.3 146.2
1997-04-23 06:00:00 29.0 147.9 28.8 148.2 28.8 148.2 29.0 148.2
1997-04-23 12:00:00 30.0 150.4 29.8 151.3 29.8 151.3 30.0 150.3
1997-04-23 18:00:00 31.1 152.9 31.0 154.7 31.0 154.7
1997-04-24 00:00:00 32.4 158.2 32.4 158.2
1997-04-24 06:00:00 34.4 161.6 34.4 161.6
1997-04-24 12:00:00 36.5 164.6 36.5 164.6

top of pageTrack Data:Intensity

jtwc_wp tokyo cma hko
Date Wind Pres Wind Pres Wind Pres Wind Pres
1997-04-09 00:00:00 15.
1997-04-09 06:00:00 20.
1997-04-09 12:00:00 20.
1997-04-09 18:00:00 20.
1997-04-10 00:00:00 20.
1997-04-10 06:00:00 20.
1997-04-10 12:00:00 20.
1997-04-10 18:00:00 25.
1997-04-11 00:00:00 25.
1997-04-11 06:00:00 25.
1997-04-11 12:00:00 25.
1997-04-11 18:00:00 30.
1997-04-12 00:00:00 30. 1002. 19. 1002. 30. 1002.
1997-04-12 06:00:00 35. 1002. 23. 1002. 30. 1002.
1997-04-12 12:00:00 40. 1000. 29. 1000. 30. 1002.
1997-04-12 18:00:00 45. 1000. 29. 1000. 30. 1000.
1997-04-13 00:00:00 55. 35. 996. 29. 1000. 35. 996.
1997-04-13 06:00:00 55. 35. 994. 35. 995. 35. 994.
1997-04-13 12:00:00 60. 35. 994. 35. 995. 35. 994.
1997-04-13 18:00:00 65. 35. 994. 35. 995. 40. 992.
1997-04-14 00:00:00 65. 40. 992. 39. 995. 40. 992.
1997-04-14 06:00:00 65. 40. 992. 39. 992. 40. 992.
1997-04-14 12:00:00 65. 40. 992. 45. 990. 40. 992.
1997-04-14 18:00:00 70. 40. 990. 45. 990. 45. 990.
1997-04-15 00:00:00 75. 45. 985. 49. 990. 50. 985.
jtwc_wp tokyo cma hko
1997-04-15 06:00:00 80. 50. 980. 49. 985. 50. 985.
1997-04-15 12:00:00 85. 50. 980. 49. 985. 55. 980.
1997-04-15 18:00:00 90. 55. 975. 58. 980. 60. 975.
1997-04-16 00:00:00 95. 65. 970. 64. 975. 65. 970.
1997-04-16 06:00:00 100. 65. 970. 64. 975. 65. 970.
1997-04-16 12:00:00 105. 65. 970. 64. 975. 65. 970.
1997-04-16 18:00:00 105. 65. 970. 64. 975. 65. 970.
1997-04-17 00:00:00 105. 70. 965. 68. 970. 70. 965.
1997-04-17 06:00:00 110. 70. 960. 78. 965. 70. 965.
1997-04-17 12:00:00 110. 70. 960. 78. 960. 75. 960.
1997-04-17 18:00:00 115. 70. 960. 78. 960. 75. 960.
1997-04-18 00:00:00 115. 70. 960. 78. 960. 75. 960.
1997-04-18 06:00:00 120. 70. 960. 78. 960. 75. 960.
1997-04-18 12:00:00 125. 75. 955. 78. 960. 80. 955.
1997-04-18 18:00:00 125. 75. 955. 78. 960. 80. 955.
1997-04-19 00:00:00 125. 80. 950. 78. 960. 85. 950.
1997-04-19 06:00:00 130. 80. 950. 87. 955. 90. 945.
1997-04-19 12:00:00 135. 85. 945. 97. 945. 95. 940.
1997-04-19 18:00:00 140. 85. 945. 97. 945. 95. 940.
1997-04-20 00:00:00 145. 85. 940. 97. 945. 95. 940.
1997-04-20 06:00:00 145. 85. 940. 97. 945. 90. 945.
1997-04-20 12:00:00 140. 85. 940. 97. 945. 85. 950.
1997-04-20 18:00:00 130. 85. 940. 97. 945. 80. 955.
1997-04-21 00:00:00 125. 80. 950. 78. 955. 75. 960.
jtwc_wp tokyo cma hko
1997-04-21 06:00:00 115. 75. 955. 78. 960. 70. 965.
1997-04-21 12:00:00 100. 70. 960. 78. 960. 65. 970.
1997-04-21 18:00:00 90. 65. 970. 68. 970. 60. 975.
1997-04-22 00:00:00 80. 60. 975. 64. 975. 50. 980.
1997-04-22 06:00:00 75. 60. 975. 64. 975. 50. 980.
1997-04-22 12:00:00 70. 55. 980. 58. 980. 50. 980.
1997-04-22 18:00:00 65. 50. 985. 54. 985. 45. 985.
1997-04-23 00:00:00 60. 45. 990. 49. 990. 45. 985.
1997-04-23 06:00:00 50. 45. 990. 39. 995. 45. 985.
1997-04-23 12:00:00 45. 45. 994. 39. 995. 45. 985.
1997-04-23 18:00:00 45. 996. 39. 995.
1997-04-24 00:00:00 1000. 29. 1000.
1997-04-24 06:00:00 1000. 29. 1000.
1997-04-24 12:00:00 1004. 23. 1004.

top of page Links to source data

Source Source file Format
jtwc_wp bwp021997.txt ATCF
tokyo bst_all.txt:Line=46858:ISA:9701 JMA text table
cma CH1997BST.txt:Storm=2:ISA CMA text table
hko tc-besttrack-data.txt:Line=26238:ISA HKO Text table